Time;durP1;ratioP1;P1;durP2;ratioP2;P2;SDS_P1;SDS_P2;PMS_P1;PMS_P2;Temp;Humidity;BMP_temperature;BMP_pressure;BME280_temperature;BME280_humidity;BME280_pressure;Samples;Min_cycle;Max_cycle;Signal;HPM_P1;HPM_P2
2022/01/28 00:00:14;;;;;;;14.88;1.83;;;;;;;3.68;87.98;101509.84;6072209;28;20084;-73
2022/01/28 00:03:10;;;;;;;8.70;1.08;;;;;;;3.72;86.90;101506.13;6072990;28;20477;-72
2022/01/28 00:06:08;;;;;;;12.73;1.92;;;;;;;3.69;86.73;101516.78;6065936;28;20433;-72
2022/01/28 00:09:03;;;;;;;12.55;1.75;;;;;;;3.63;87.63;101524.97;6072612;28;20033;-72
2022/01/28 00:11:59;;;;;;;7.57;1.53;;;;;;;3.63;87.39;101543.31;6072164;28;20049;-72
2022/01/28 00:15:04;;;;;;;10.03;1.70;;;;;;;3.55;87.67;101530.63;6072615;28;20038;-72
2022/01/28 00:40:11;;;;;;;16.27;2.25;;;;;;;3.19;89.72;101564.84;6076266;28;20029;-72
2022/01/28 00:43:07;;;;;;;25.17;3.37;;;;;;;3.21;89.43;101572.59;6076999;28;20495;-72
2022/01/28 00:46:02;;;;;;;14.73;2.22;;;;;;;3.29;88.27;101560.81;6076465;28;20059;-71
2022/01/28 00:48:57;;;;;;;10.47;1.67;;;;;;;3.34;88.09;101569.28;6071626;28;20034;-71
2022/01/28 00:51:53;;;;;;;8.93;2.10;;;;;;;3.40;88.05;101573.34;6071140;28;20037;-71
2022/01/28 00:54:48;;;;;;;11.20;1.43;;;;;;;3.50;86.46;101578.06;6075427;28;20573;-71
2022/01/28 00:57:43;;;;;;;6.67;1.27;;;;;;;3.52;86.64;101589.31;6076399;28;20263;-71
2022/01/28 01:00:39;;;;;;;10.07;1.67;;;;;;;3.58;85.47;101593.41;6070271;28;20630;-71
2022/01/28 01:03:34;;;;;;;15.43;2.00;;;;;;;3.57;85.89;101586.44;6074869;28;20366;-72
2022/01/28 01:06:30;;;;;;;11.73;4.03;;;;;;;3.54;85.84;101584.84;6076009;28;20104;-71
2022/01/28 01:09:25;;;;;;;15.23;2.20;;;;;;;3.57;85.95;101584.69;6075251;28;20032;-71
2022/01/28 01:12:23;;;;;;;22.47;2.23;;;;;;;3.60;85.67;101595.00;6074442;28;20058;-71
2022/01/28 01:15:22;;;;;;;14.20;2.53;;;;;;;3.60;86.01;101592.38;6075946;28;20025;-71
2022/01/28 01:18:25;;;;;;;11.65;1.30;;;;;;;3.64;85.79;101607.97;6075170;28;20087;-70
2022/01/28 01:21:26;;;;;;;12.80;2.17;;;;;;;3.69;84.23;101605.94;6075145;28;20507;-72
2022/01/28 01:24:24;;;;;;;15.25;1.67;;;;;;;3.71;85.11;101609.31;6075963;28;20038;-73
2022/01/28 01:27:20;;;;;;;12.70;1.70;;;;;;;3.71;84.30;101619.81;6062608;28;20046;-73
2022/01/28 01:30:18;;;;;;;10.43;1.63;;;;;;;3.74;84.51;101638.88;6075311;28;20094;-73
2022/01/28 01:33:16;;;;;;;7.35;1.40;;;;;;;3.75;83.90;101643.16;6075477;28;20037;-71
2022/01/28 01:36:11;;;;;;;8.68;1.75;;;;;;;3.68;84.85;101635.72;6075259;28;20080;-72
2022/01/28 01:39:09;;;;;;;8.13;1.70;;;;;;;3.74;84.12;101644.13;6074860;28;20033;-72
2022/01/28 01:42:36;;;;;;;20.27;2.50;;;;;;;3.75;84.56;101629.25;6074540;28;20029;-72
2022/01/28 01:54:56;;;;;;;9.60;1.83;;;;;;;3.51;85.72;101629.56;6075292;28;20364;-72
2022/01/28 01:57:51;;;;;;;9.83;1.70;;;;;;;3.49;85.58;101626.19;6072999;28;20041;-72
2022/01/28 02:00:47;;;;;;;16.67;1.98;;;;;;;3.55;85.71;101646.84;6074935;28;20028;-73
2022/01/28 02:03:42;;;;;;;18.70;2.87;;;;;;;3.61;85.62;101657.00;6074867;28;20480;-73
2022/01/28 02:06:38;;;;;;;13.43;1.97;;;;;;;3.63;84.81;101671.81;6074205;28;20116;-73
2022/01/28 02:09:33;;;;;;;9.50;1.95;;;;;;;3.57;85.61;101665.97;6058534;28;20080;-73
2022/01/28 02:12:46;;;;;;;12.70;2.10;;;;;;;3.52;85.89;101660.09;6064639;28;20033;-72
2022/01/28 02:15:41;;;;;;;19.52;2.30;;;;;;;3.32;87.39;101665.50;6073328;28;20032;-72
2022/01/28 02:18:36;;;;;;;13.93;2.03;;;;;;;3.16;87.84;101672.41;6061214;28;20033;-72
2022/01/28 02:21:33;;;;;;;9.13;1.50;;;;;;;3.19;88.04;101659.16;6062874;28;20504;-72
2022/01/28 02:24:35;;;;;;;11.23;2.40;;;;;;;3.23;87.58;101679.06;6050914;28;20301;-72
2022/01/28 02:27:31;;;;;;;10.75;2.38;;;;;;;3.37;85.97;101681.84;6068981;28;20033;-72
2022/01/28 02:30:26;;;;;;;13.85;1.80;;;;;;;3.44;86.08;101690.25;6073690;28;20033;-72
2022/01/28 02:33:24;;;;;;;10.13;1.75;;;;;;;3.46;85.65;101681.38;6060832;28;20117;-72
2022/01/28 02:36:20;;;;;;;10.43;1.63;;;;;;;3.47;85.88;101693.59;6064506;28;20063;-72
2022/01/28 02:39:15;;;;;;;11.47;1.50;;;;;;;3.48;85.70;101687.38;6073962;28;20029;-72
2022/01/28 02:42:24;;;;;;;15.90;1.77;;;;;;;3.53;85.35;101680.13;6073656;28;20021;-72
2022/01/28 02:45:35;;;;;;;18.23;2.10;;;;;;;3.48;84.46;101682.16;6068209;28;20122;-72
2022/01/28 02:48:32;;;;;;;16.48;2.72;;;;;;;3.45;84.38;101684.09;6073789;28;20034;-71
2022/01/28 02:51:28;;;;;;;11.00;1.92;;;;;;;3.48;84.17;101697.88;6073428;28;20110;-72
2022/01/28 02:54:23;;;;;;;10.82;1.55;;;;;;;3.53;84.57;101703.72;6071548;28;20034;-71
2022/01/28 02:57:24;;;;;;;13.43;1.80;;;;;;;3.53;84.91;101716.84;6073586;28;20504;-73
2022/01/28 03:00:19;;;;;;;;;;;;;;;3.54;84.98;101733.44;6073472;28;20275;-72
2022/01/28 03:03:18;;;;;;;13.33;1.90;;;;;;;3.57;84.57;101713.16;6067229;28;19913;-71
2022/01/28 03:06:15;;;;;;;14.02;2.22;;;;;;;3.64;84.29;101713.72;6059094;28;20029;-72
2022/01/28 03:09:18;;;;;;;9.00;1.38;;;;;;;3.70;83.64;101713.38;6073605;28;20037;-71
2022/01/28 03:12:16;;;;;;;19.50;2.53;;;;;;;3.71;84.09;101716.84;6072811;28;20044;-72
2022/01/28 03:15:18;;;;;;;17.63;2.17;;;;;;;3.71;83.00;101714.22;6072901;28;20029;-73
2022/01/28 03:18:21;;;;;;;18.27;2.60;;;;;;;3.66;83.30;101721.50;6073192;28;20033;-72
2022/01/28 03:21:25;;;;;;;9.32;1.77;;;;;;;3.63;83.93;101717.25;6065207;28;20481;-73
2022/01/28 03:24:25;;;;;;;9.23;1.92;;;;;;;3.64;83.78;101732.06;6073218;28;20120;-73
2022/01/28 03:27:44;;;;;;;9.18;2.33;;;;;;;3.61;83.91;101719.94;6072692;28;20059;-73
2022/01/28 03:30:36;;;;;;;21.48;2.20;;;;;;;3.63;83.97;101709.38;6072434;28;20037;-73
2022/01/28 03:33:32;;;;;;;10.43;1.80;;;;;;;3.69;83.61;101731.81;6073427;28;20116;-73
2022/01/28 03:36:27;;;;;;;12.47;1.40;;;;;;;3.69;83.21;101734.44;6072995;28;20388;-74
2022/01/28 03:39:22;;;;;;;12.17;2.10;;;;;;;3.68;84.18;101751.09;6073398;28;20037;-73
2022/01/28 03:42:17;;;;;;;13.37;1.80;;;;;;;3.68;83.08;101753.72;6071759;28;20473;-73
2022/01/28 03:45:13;;;;;;;10.37;1.20;;;;;;;3.63;84.10;101758.34;6072879;28;20291;-73
2022/01/28 03:48:08;;;;;;;12.43;2.00;;;;;;;3.60;83.73;101775.94;6072761;28;20511;-72
2022/01/28 03:51:03;;;;;;;12.30;2.40;;;;;;;3.59;84.05;101771.63;6072288;28;20037;-73
2022/01/28 03:53:59;;;;;;;15.07;2.17;;;;;;;3.59;84.23;101771.63;6073350;28;20040;-74
2022/01/28 03:56:54;;;;;;;12.93;2.13;;;;;;;3.55;85.06;101780.56;6064524;28;20523;-73
2022/01/28 03:59:49;;;;;;;14.88;2.22;;;;;;;3.53;84.61;101795.50;6071535;28;20488;-73
2022/01/28 04:02:46;;;;;;;16.60;1.70;;;;;;;3.51;84.56;101799.97;6072020;28;20030;-73
2022/01/28 04:11:26;;;;;;;23.25;3.25;;;;;;;3.47;85.91;101816.81;6073183;28;20029;-73
2022/01/28 04:12:30;;;;;;;16.20;1.90;;;;;;;3.31;86.01;101814.97;6076585;28;20041;-73
2022/01/28 04:15:51;;;;;;;12.70;1.88;;;;;;;3.25;85.59;101825.75;6077112;28;20034;-73
2022/01/28 04:18:47;;;;;;;13.48;1.98;;;;;;;3.23;85.31;101833.69;6077380;28;20429;-73
2022/01/28 04:21:43;;;;;;;11.30;2.10;;;;;;;3.25;85.69;101831.84;6076406;28;20556;-73
2022/01/28 04:24:38;;;;;;;12.57;2.10;;;;;;;3.29;84.75;101845.66;6077598;28;20041;-73
2022/01/28 04:27:33;;;;;;;15.33;1.77;;;;;;;3.34;84.92;101847.13;6076646;28;20048;-74
2022/01/28 04:30:28;;;;;;;8.97;1.77;;;;;;;3.34;83.99;101841.88;6075861;28;20101;-72
2022/01/28 04:33:24;;;;;;;5.10;1.23;;;;;;;3.29;84.18;101856.16;6077479;28;20040;-72
2022/01/28 04:36:20;;;;;;;8.70;1.40;;;;;;;3.25;84.77;101857.19;6075763;28;20028;-72
2022/01/28 04:39:27;;;;;;;6.57;1.20;;;;;;;3.24;84.38;101860.72;6076760;28;20268;-72
2022/01/28 04:42:43;;;;;;;5.25;1.15;;;;;;;3.25;84.51;101858.06;6076369;28;20060;-72
2022/01/28 04:48:49;;;;;;;18.50;1.92;;;;;;;3.27;84.80;101890.28;6076276;28;20029;-73
2022/01/28 04:52:07;;;;;;;10.68;2.03;;;;;;;3.30;85.09;101891.91;6076453;28;20056;-73
2022/01/28 04:55:36;;;;;;;11.95;2.05;;;;;;;3.25;85.45;101883.41;6070405;28;20503;-72
2022/01/28 05:05:00;;;;;;;18.77;1.80;;;;;;;3.23;83.79;101896.59;6065099;28;20045;-72
2022/01/28 05:27:19;;;;;;;11.68;2.00;;;;;;;3.18;86.22;101955.38;6064032;28;20037;-72
2022/01/28 05:30:08;;;;;;;13.52;2.65;;;;;;;2.93;88.44;101958.22;6065241;28;20095;-73
2022/01/28 05:33:03;;;;;;;13.98;2.20;;;;;;;2.67;90.08;101958.47;6076023;28;20029;-73
2022/01/28 05:35:58;;;;;;;17.13;1.77;;;;;;;2.52;91.16;101953.91;6075850;28;20091;-72
2022/01/28 05:38:54;;;;;;;17.30;2.20;;;;;;;2.45;91.85;101971.59;6075646;28;20377;-71
2022/01/28 05:41:49;;;;;;;11.20;2.67;;;;;;;2.36;92.37;101979.84;6071985;28;20030;-70
2022/01/28 05:44:44;;;;;;;17.25;2.78;;;;;;;2.32;93.77;101980.88;6069861;28;20037;-71
2022/01/28 05:47:40;;;;;;;9.73;1.83;;;;;;;2.31;94.00;101977.41;6069565;28;20045;-70
2022/01/28 05:50:35;;;;;;;11.60;1.83;;;;;;;2.27;94.45;101981.09;6074957;28;20037;-70
2022/01/28 05:53:30;;;;;;;15.03;2.30;;;;;;;2.27;94.77;101980.22;6075486;28;20411;-71
2022/01/28 05:56:26;;;;;;;17.80;2.57;;;;;;;2.18;94.43;101981.44;6071335;28;20308;-72
2022/01/28 05:59:21;;;;;;;18.90;3.35;;;;;;;2.15;94.39;101976.31;6061383;28;20273;-72
2022/01/28 06:02:18;;;;;;;11.37;1.80;;;;;;;2.15;94.42;101981.56;6050722;28;20389;-71
2022/01/28 06:05:13;;;;;;;10.90;2.60;;;;;;;2.13;94.84;101982.53;6071350;28;20034;-70
2022/01/28 06:08:09;;;;;;;18.63;2.53;;;;;;;2.10;95.01;101999.22;6069988;28;20037;-69
2022/01/28 06:11:04;;;;;;;17.30;2.37;;;;;;;2.10;94.72;102004.44;6059824;28;20041;-71
2022/01/28 06:13:59;;;;;;;14.70;1.90;;;;;;;2.15;94.71;102014.72;6074542;28;20052;-70
2022/01/28 06:16:55;;;;;;;10.73;2.00;;;;;;;2.17;94.51;102013.78;6063489;28;20029;-69
2022/01/28 06:19:50;;;;;;;9.30;1.77;;;;;;;2.23;94.15;102017.88;6056709;28;20026;-70
2022/01/28 06:22:46;;;;;;;14.93;1.80;;;;;;;2.25;94.15;102024.78;6069939;28;20068;-71
2022/01/28 06:25:43;;;;;;;7.45;1.38;;;;;;;2.28;93.61;102042.94;6074634;28;20029;-71
2022/01/28 06:28:38;;;;;;;18.58;2.65;;;;;;;2.29;93.21;102021.13;6059936;28;20042;-71
2022/01/28 06:31:34;;;;;;;9.60;1.70;;;;;;;2.29;93.82;102039.44;6072918;28;20048;-70
2022/01/28 06:34:29;;;;;;;10.77;1.80;;;;;;;2.29;93.09;102038.56;6074235;28;20087;-69
2022/01/28 06:37:24;;;;;;;15.73;1.90;;;;;;;2.32;92.98;102047.16;6073919;28;20049;-72
2022/01/28 06:40:19;;;;;;;11.97;2.70;;;;;;;2.39;92.58;102055.63;6073745;28;20044;-70
2022/01/28 06:43:15;;;;;;;12.10;1.40;;;;;;;2.42;91.87;102054.66;6073582;28;20033;-71
2022/01/28 06:46:10;;;;;;;12.73;1.77;;;;;;;2.42;92.37;102053.72;6073720;28;20264;-71
2022/01/28 06:49:06;;;;;;;7.27;1.40;;;;;;;2.46;91.60;102066.69;6073806;28;20033;-72
2022/01/28 06:52:01;;;;;;;15.40;1.80;;;;;;;2.38;92.45;102075.72;6072998;28;20048;-70
2022/01/28 06:54:56;;;;;;;9.80;1.70;;;;;;;2.32;91.86;102075.09;6073477;28;20061;-71
2022/01/28 06:57:54;;;;;;;8.67;2.27;;;;;;;2.30;92.96;102083.03;6072466;28;20036;-73
2022/01/28 07:00:49;;;;;;;12.20;2.33;;;;;;;2.29;92.33;102097.00;6067022;28;20040;-71
2022/01/28 07:03:45;;;;;;;14.20;2.08;;;;;;;2.31;92.62;102083.88;6070567;28;20061;-71
2022/01/28 07:06:40;;;;;;;16.00;2.30;;;;;;;2.32;92.26;102094.28;6071807;28;20044;-71
2022/01/28 07:09:35;;;;;;;10.65;1.52;;;;;;;2.32;92.40;102099.50;6062823;28;20025;-73
2022/01/28 07:12:31;;;;;;;10.17;2.20;;;;;;;2.35;92.84;102096.78;6072109;28;20042;-71
2022/01/28 07:15:27;;;;;;;7.50;1.80;;;;;;;2.41;92.35;102116.63;6069371;28;20041;-71
2022/01/28 07:18:24;;;;;;;11.02;2.08;;;;;;;2.53;91.64;102110.88;6065792;28;20035;-71
2022/01/28 07:21:19;;;;;;;14.32;2.33;;;;;;;2.60;91.46;102119.38;6046780;28;20115;-72
2022/01/28 07:24:15;;;;;;;15.57;2.73;;;;;;;2.62;90.81;102120.16;6073019;28;20034;-71
2022/01/28 07:27:10;;;;;;;19.92;2.47;;;;;;;2.65;90.23;102127.88;6057213;28;20033;-71
2022/01/28 07:30:07;;;;;;;17.03;1.77;;;;;;;2.65;90.09;102127.88;6060753;28;20048;-73
2022/01/28 07:33:05;;;;;;;9.25;1.45;;;;;;;2.75;90.04;102134.44;6072281;28;20041;-71
2022/01/28 07:36:01;;;;;;;15.65;2.60;;;;;;;2.76;89.74;102146.66;6073669;28;20103;-70
2022/01/28 07:38:56;;;;;;;16.73;1.83;;;;;;;2.80;88.76;102143.00;6073071;28;20021;-71
2022/01/28 07:41:51;;;;;;;13.47;1.67;;;;;;;2.81;89.14;102156.03;6074600;28;20284;-71
2022/01/28 07:44:47;;;;;;;9.50;1.83;;;;;;;2.81;88.31;102144.69;6078010;28;20116;-70
2022/01/28 07:47:43;;;;;;;10.40;2.97;;;;;;;2.83;88.21;102153.34;6076777;28;20037;-71
2022/01/28 07:50:38;;;;;;;12.55;1.85;;;;;;;2.84;88.59;102155.91;6077626;28;20120;-71
2022/01/28 07:53:34;;;;;;;16.10;2.10;;;;;;;2.78;87.94;102161.38;6078226;28;20033;-72
2022/01/28 07:56:29;;;;;;;12.43;1.87;;;;;;;2.77;88.14;102161.47;6077996;28;20488;-71
2022/01/28 07:59:24;;;;;;;5.97;1.50;;;;;;;2.72;88.22;102166.00;6077877;28;20033;-72
2022/01/28 08:02:19;;;;;;;17.03;2.07;;;;;;;2.75;87.93;102165.88;6076961;28;20325;-71
2022/01/28 08:05:15;;;;;;;17.47;2.77;;;;;;;2.81;87.28;102178.75;6077646;28;20037;-72
2022/01/28 08:08:12;;;;;;;17.77;2.30;;;;;;;2.88;87.21;102180.22;6074877;28;20069;-71
2022/01/28 08:11:08;;;;;;;14.65;1.77;;;;;;;2.96;87.38;102186.84;6069842;28;20041;-72
2022/01/28 08:14:03;;;;;;;14.93;2.00;;;;;;;3.00;86.33;102198.06;6077460;28;20374;-72
2022/01/28 08:16:59;;;;;;;14.37;2.13;;;;;;;3.04;86.88;102202.28;6077300;28;20029;-72
2022/01/28 08:19:54;;;;;;;14.35;2.50;;;;;;;3.03;86.62;102195.31;6072130;28;20278;-73
2022/01/28 08:22:52;;;;;;;11.33;1.47;;;;;;;3.02;85.90;102206.69;6066566;28;20030;-71
2022/01/28 08:25:51;;;;;;;14.85;2.80;;;;;;;3.08;86.05;102210.84;6070781;28;20120;-72
2022/01/28 08:28:47;;;;;;;16.55;2.10;;;;;;;3.19;85.34;102214.75;6076865;28;20052;-72
2022/01/28 08:31:42;;;;;;;8.52;1.35;;;;;;;3.21;85.05;102212.91;6065724;28;20037;-72
2022/01/28 08:34:38;;;;;;;12.23;2.07;;;;;;;3.26;84.91;102213.56;6077530;28;20510;-72
2022/01/28 08:37:33;;;;;;;18.47;2.37;;;;;;;3.30;84.55;102227.41;6077072;28;20071;-72
2022/01/28 08:40:29;;;;;;;14.48;3.17;;;;;;;3.36;83.82;102222.78;6075673;28;20092;-72
2022/01/28 08:43:25;;;;;;;14.50;2.60;;;;;;;3.37;83.53;102229.72;6076859;28;20036;-72
2022/01/28 08:46:20;;;;;;;11.73;1.85;;;;;;;3.42;83.55;102242.66;6064981;28;20034;-72
2022/01/28 08:49:15;;;;;;;10.00;1.83;;;;;;;3.40;83.34;102244.47;6073601;28;20539;-72
2022/01/28 08:52:11;;;;;;;14.13;2.17;;;;;;;3.43;82.76;102252.22;6073450;28;20033;-72
2022/01/28 08:55:07;;;;;;;15.47;1.90;;;;;;;3.42;82.80;102251.38;6075905;28;20029;-72
2022/01/28 08:58:02;;;;;;;11.20;2.55;;;;;;;3.46;83.13;102255.56;6076634;28;20079;-71
2022/01/28 09:00:57;;;;;;;11.17;2.30;;;;;;;3.46;83.32;102266.06;6075959;28;20033;-72
2022/01/28 09:03:53;;;;;;;17.60;2.17;;;;;;;3.52;82.43;102257.94;6068495;28;20037;-72
2022/01/28 09:06:48;;;;;;;10.53;2.10;;;;;;;3.59;82.28;102275.13;6076669;28;20029;-71
2022/01/28 09:09:49;;;;;;;17.03;2.50;;;;;;;3.65;82.25;102257.41;6066105;28;20029;-73
2022/01/28 09:13:10;;;;;;;17.05;2.30;;;;;;;3.68;81.83;102273.03;6069380;28;20428;-73
2022/01/28 09:16:02;;;;;;;19.08;2.83;;;;;;;3.71;81.94;102284.25;6075821;28;20535;-73
2022/01/28 09:18:57;;;;;;;11.90;2.67;;;;;;;3.74;81.82;102286.75;6067668;28;20037;-71
2022/01/28 09:21:53;;;;;;;17.37;2.23;;;;;;;3.85;81.07;102296.81;6075101;28;20037;-72
2022/01/28 09:24:48;;;;;;;10.77;1.90;;;;;;;3.88;80.79;102294.91;6076358;28;20767;-72
2022/01/28 09:27:43;;;;;;;15.10;1.83;;;;;;;3.91;81.49;102307.03;6074599;28;20067;-72
2022/01/28 09:30:38;;;;;;;21.67;2.70;;;;;;;3.86;81.29;102312.47;6074002;28;20048;-72
2022/01/28 09:33:34;;;;;;;18.40;2.70;;;;;;;3.81;80.07;102316.19;6067277;28;20370;-72
2022/01/28 09:36:30;;;;;;;13.50;2.67;;;;;;;3.81;80.97;102335.41;6075560;28;20292;-72
2022/01/28 09:39:25;;;;;;;9.93;2.27;;;;;;;3.98;79.73;102343.47;6075579;28;20056;-72
2022/01/28 09:42:25;;;;;;;15.13;2.17;;;;;;;4.04;80.21;102343.22;6075136;28;20049;-72
2022/01/28 09:45:23;;;;;;;28.33;3.65;;;;;;;4.07;79.77;102360.59;6065701;28;20031;-72
2022/01/28 09:48:19;;;;;;;26.80;3.08;;;;;;;4.28;79.60;102362.31;6075829;28;20038;-72
2022/01/28 09:51:14;;;;;;;18.05;2.78;;;;;;;4.44;78.85;102362.50;6068648;28;20037;-71
2022/01/28 09:54:10;;;;;;;12.37;2.77;;;;;;;4.47;79.06;102368.47;6075786;28;20044;-71
2022/01/28 09:57:06;;;;;;;16.33;2.85;;;;;;;4.45;77.26;102375.59;6066728;28;20057;-71
2022/01/28 10:00:04;;;;;;;22.25;3.35;;;;;;;4.50;77.95;102370.13;6069901;28;20556;-71
2022/01/28 10:03:08;;;;;;;14.20;2.47;;;;;;;4.51;77.65;102380.53;6075450;28;20049;-72
2022/01/28 10:06:03;;;;;;;18.70;3.10;;;;;;;4.53;76.12;102378.72;6075050;28;20037;-72
2022/01/28 10:09:02;;;;;;;11.90;2.43;;;;;;;4.63;75.59;102389.69;6074900;28;20122;-71
2022/01/28 10:12:12;;;;;;;15.52;3.33;;;;;;;4.62;75.80;102404.59;6074157;28;20052;-72
2022/01/28 10:15:18;;;;;;;16.13;2.45;;;;;;;4.61;75.84;102392.38;6074375;28;20508;-72
2022/01/28 10:18:13;;;;;;;20.58;3.28;;;;;;;4.70;76.46;102384.09;6070813;28;20442;-74
2022/01/28 10:21:30;;;;;;;12.87;2.83;;;;;;;4.76;75.90;102396.94;6073978;28;20045;-71
2022/01/28 10:24:28;;;;;;;19.00;2.88;;;;;;;4.79;75.79;102404.72;6074236;28;20040;-72
2022/01/28 10:27:23;;;;;;;12.75;2.28;;;;;;;4.81;74.73;102397.59;6074960;28;20420;-72
2022/01/28 10:30:19;;;;;;;17.73;2.75;;;;;;;4.79;74.36;102402.06;6073049;28;20049;-72
2022/01/28 10:33:22;;;;;;;12.90;2.00;;;;;;;4.90;74.14;102414.75;6074739;28;20044;-72
2022/01/28 10:36:24;;;;;;;15.80;2.17;;;;;;;4.91;72.70;102407.72;6073151;28;20414;-71
2022/01/28 10:39:21;;;;;;;14.05;2.30;;;;;;;4.98;72.69;102410.00;6073485;28;20033;-71
2022/01/28 10:42:20;;;;;;;15.45;2.15;;;;;;;5.08;72.38;102400.75;6073614;28;20423;-71
2022/01/28 10:45:19;;;;;;;12.95;3.13;;;;;;;5.05;70.83;102393.03;6074379;28;20037;-71
2022/01/28 10:48:22;;;;;;;26.65;2.30;;;;;;;5.14;70.96;102402.25;6069686;28;20037;-71
2022/01/28 10:51:19;;;;;;;16.55;2.08;;;;;;;5.15;69.30;102394.31;6073493;28;20079;-72
2022/01/28 10:54:20;;;;;;;15.68;2.00;;;;;;;5.26;70.01;102391.19;6071232;28;20472;-71
2022/01/28 10:57:18;;;;;;;15.55;1.73;;;;;;;5.55;69.81;102388.06;6071620;28;20112;-72
2022/01/28 11:00:14;;;;;;;20.92;2.97;;;;;;;5.30;68.86;102382.22;6073076;28;20045;-73
2022/01/28 11:03:11;;;;;;;15.07;2.40;;;;;;;5.13;68.78;102390.06;6074067;28;20457;-71
2022/01/28 11:06:07;;;;;;;10.93;1.88;;;;;;;5.36;68.58;102389.84;6073566;28;20753;-71
2022/01/28 11:09:02;;;;;;;12.20;2.70;;;;;;;5.48;69.83;102386.66;6072299;28;20037;-71
2022/01/28 11:12:00;;;;;;;11.13;2.10;;;;;;;5.75;69.80;102393.22;6067607;28;20307;-71
2022/01/28 11:14:55;;;;;;;15.60;1.88;;;;;;;5.84;67.24;102407.72;6071287;28;20098;-72
2022/01/28 11:17:51;;;;;;;14.67;2.97;;;;;;;5.87;67.50;102397.91;6072101;28;20037;-74
2022/01/28 11:20:54;;;;;;;24.15;1.80;;;;;;;5.80;66.77;102393.84;6068806;28;20268;-72
2022/01/28 11:24:01;;;;;;;11.70;1.70;;;;;;;5.80;66.83;102395.63;6051038;28;20124;-73
2022/01/28 11:27:21;;;;;;;14.90;2.40;;;;;;;5.60;66.46;102395.75;6064541;28;20484;-72
2022/01/28 11:30:25;;;;;;;22.40;2.63;;;;;;;5.29;67.41;102401.59;6064919;28;20030;-73
2022/01/28 11:33:20;;;;;;;9.60;1.98;;;;;;;5.14;70.01;102392.59;6073545;28;20480;-73
2022/01/28 11:36:32;;;;;;;17.33;2.57;;;;;;;5.32;71.11;102396.19;6073553;28;20045;-73
2022/01/28 11:39:36;;;;;;;12.73;2.63;;;;;;;5.35;71.01;102396.88;6066949;28;20423;-73
2022/01/28 11:42:31;;;;;;;13.93;2.80;;;;;;;5.35;70.36;102391.59;6070969;28;20123;-72
2022/01/28 11:45:41;;;;;;;12.47;2.10;;;;;;;5.38;70.66;102401.16;6073395;28;20033;-73
2022/01/28 11:48:51;;;;;;;12.02;1.80;;;;;;;5.48;70.85;102412.09;6073590;28;20026;-73
2022/01/28 11:51:46;;;;;;;11.75;1.95;;;;;;;5.48;70.29;102407.69;6067009;28;20040;-73
2022/01/28 11:54:42;;;;;;;10.57;1.90;;;;;;;5.34;69.63;102410.09;6069096;28;20021;-73
2022/01/28 11:57:49;;;;;;;10.63;1.60;;;;;;;5.34;70.31;102413.59;6073314;28;20048;-73
2022/01/28 12:00:47;;;;;;;17.48;1.80;;;;;;;5.24;68.83;102424.63;6069117;28;20026;-72
2022/01/28 12:03:42;;;;;;;8.23;1.35;;;;;;;5.17;68.81;102438.94;6073343;28;20087;-73
2022/01/28 12:06:38;;;;;;;16.57;1.77;;;;;;;5.39;69.03;102439.69;6073150;28;20038;-73
2022/01/28 12:09:35;;;;;;;9.57;2.10;;;;;;;5.59;69.37;102439.63;6069851;28;20041;-73
2022/01/28 12:12:47;;;;;;;16.80;2.10;;;;;;;5.79;70.12;102444.78;6066388;28;20065;-73
2022/01/28 12:15:59;;;;;;;11.73;1.92;;;;;;;5.73;68.19;102450.34;6072940;28;20040;-73
2022/01/28 12:18:56;;;;;;;15.60;2.30;;;;;;;5.46;68.10;102446.38;6070855;28;20034;-73
2022/01/28 12:22:10;;;;;;;7.95;1.98;;;;;;;5.42;68.99;102450.06;6060862;28;20041;-72
2022/01/28 12:25:34;;;;;;;11.80;1.42;;;;;;;5.43;68.24;102454.41;6071916;28;20041;-72
2022/01/28 12:28:32;;;;;;;16.63;2.05;;;;;;;5.39;69.22;102464.22;6068494;28;20397;-72
2022/01/28 12:31:32;;;;;;;14.88;2.30;;;;;;;5.32;68.63;102468.06;6070128;28;20469;-72
2022/01/28 12:34:27;;;;;;;9.73;1.33;;;;;;;5.29;68.59;102475.22;6077223;28;20550;-72
2022/01/28 12:37:23;;;;;;;10.77;2.17;;;;;;;5.35;69.19;102485.47;6076726;28;20029;-71
2022/01/28 12:40:24;;;;;;;15.00;2.10;;;;;;;5.54;68.42;102470.56;6075956;28;20041;-71
2022/01/28 12:43:24;;;;;;;17.58;2.53;;;;;;;5.68;67.47;102480.44;6076968;28;20071;-72
2022/01/28 12:46:19;;;;;;;12.95;2.50;;;;;;;5.55;68.12;102474.03;6077006;28;20041;-72
2022/01/28 12:49:16;;;;;;;17.23;2.75;;;;;;;5.39;68.93;102471.25;6076870;28;20441;-72
2022/01/28 12:52:11;;;;;;;14.73;1.80;;;;;;;5.20;68.30;102465.97;6074265;28;20389;-71
2022/01/28 12:55:07;;;;;;;16.13;2.38;;;;;;;5.07;69.94;102474.47;6076596;28;20065;-71
2022/01/28 12:58:02;;;;;;;10.35;1.88;;;;;;;4.96;69.84;102460.94;6073579;28;20497;-71
2022/01/28 13:01:19;;;;;;;14.83;2.10;;;;;;;5.08;68.03;102457.78;6055800;28;20037;-71
2022/01/28 13:04:17;;;;;;;7.63;1.55;;;;;;;5.19;66.86;102448.47;6059401;28;21156;-72
2022/01/28 13:10:25;;;;;;;10.15;2.15;;;;;;;5.27;67.48;102448.97;6075464;28;20042;-71
2022/01/28 13:13:21;;;;;;;15.55;2.13;;;;;;;5.25;68.00;102455.22;6075257;28;20033;-72
2022/01/28 13:16:28;;;;;;;12.65;2.15;;;;;;;5.20;68.18;102459.84;6071938;28;20026;-72
2022/01/28 13:19:23;;;;;;;13.50;1.50;;;;;;;5.23;68.33;102455.31;6076046;28;20086;-72
2022/01/28 13:22:26;;;;;;;10.47;1.70;;;;;;;5.25;67.25;102453.44;6073090;28;20045;-72
2022/01/28 13:25:24;;;;;;;11.13;1.75;;;;;;;5.28;68.23;102457.72;6075573;28;20033;-72
2022/01/28 13:28:20;;;;;;;10.35;1.95;;;;;;;5.33;67.81;102458.34;6076445;28;20466;-72
2022/01/28 13:31:24;;;;;;;19.40;2.42;;;;;;;5.34;69.73;102468.81;6075139;28;20033;-72
2022/01/28 13:34:20;;;;;;;15.80;1.92;;;;;;;5.29;68.36;102462.06;6063711;28;20473;-72
2022/01/28 13:37:34;;;;;;;11.87;1.87;;;;;;;5.19;68.37;102473.94;6075678;28;20030;-72
2022/01/28 13:40:31;;;;;;;12.52;1.60;;;;;;;5.17;68.50;102481.00;6074606;28;20550;-71
2022/01/28 13:43:28;;;;;;;16.00;2.25;;;;;;;5.11;68.54;102470.78;6075312;28;20038;-72
2022/01/28 13:46:23;;;;;;;7.80;1.63;;;;;;;5.15;68.41;102477.59;6075567;28;20030;-71
2022/01/28 13:49:19;;;;;;;16.60;2.10;;;;;;;5.22;69.11;102489.53;6075622;28;20078;-71
2022/01/28 13:52:41;;;;;;;19.20;2.72;;;;;;;5.27;68.11;102471.81;6074868;28;20068;-71
2022/01/28 13:55:37;;;;;;;7.45;1.70;;;;;;;5.36;69.18;102468.75;6074537;28;20469;-74
2022/01/28 13:58:52;;;;;;;13.00;2.38;;;;;;;5.41;69.13;102461.50;6075458;28;20025;-71
2022/01/28 14:01:49;;;;;;;10.75;2.38;;;;;;;5.48;68.60;102470.84;6071898;28;20075;-71
2022/01/28 14:04:46;;;;;;;12.88;1.88;;;;;;;5.44;68.44;102471.88;6071497;28;20087;-71
2022/01/28 14:07:52;;;;;;;12.23;2.00;;;;;;;5.34;69.08;102471.47;6065660;28;20041;-72
2022/01/28 14:10:48;;;;;;;18.17;2.28;;;;;;;5.18;70.28;102466.97;6074400;28;20469;-71
2022/01/28 14:13:43;;;;;;;16.87;1.83;;;;;;;5.00;70.19;102480.91;6074707;28;20044;-71
2022/01/28 14:16:38;;;;;;;13.27;2.33;;;;;;;4.92;70.22;102475.97;6075225;28;20029;-72
2022/01/28 14:19:35;;;;;;;21.17;2.07;;;;;;;4.87;70.53;102482.34;6074433;28;20279;-72
2022/01/28 14:22:31;;;;;;;17.02;2.08;;;;;;;4.78;70.32;102488.88;6074084;28;20067;-71
2022/01/28 14:25:26;;;;;;;12.07;2.00;;;;;;;4.76;70.59;102506.47;6062036;28;20026;-71
2022/01/28 14:31:16;;;;;;;11.57;1.60;;;;;;;4.75;70.42;102504.78;6074048;28;20041;-72
2022/01/28 14:34:12;;;;;;;15.80;2.10;;;;;;;4.76;71.00;102512.56;6073675;28;20476;-72
2022/01/28 14:37:07;;;;;;;11.47;1.77;;;;;;;4.77;70.38;102516.06;6074299;28;20036;-72
2022/01/28 14:40:03;;;;;;;10.57;1.30;;;;;;;4.85;70.57;102518.34;6071331;28;20037;-72
2022/01/28 14:42:59;;;;;;;11.57;1.55;;;;;;;4.82;69.94;102514.94;6063156;28;20511;-71
2022/01/28 14:45:54;;;;;;;11.20;1.57;;;;;;;4.85;69.69;102505.22;6074045;28;20048;-71
2022/01/28 14:48:49;;;;;;;16.10;1.93;;;;;;;4.86;70.46;102513.06;6073882;28;20040;-72
2022/01/28 14:51:51;;;;;;;15.23;2.13;;;;;;;4.78;71.37;102509.91;6072994;28;20045;-72
2022/01/28 14:54:48;;;;;;;17.85;2.58;;;;;;;4.76;70.64;102517.81;6072970;28;20041;-72
2022/01/28 14:57:43;;;;;;;12.40;1.98;;;;;;;4.73;71.07;102531.09;6074318;28;20473;-73
2022/01/28 15:00:38;;;;;;;11.10;2.47;;;;;;;4.72;70.12;102525.91;6073292;28;20051;-71